Time;durP1;ratioP1;P1;durP2;ratioP2;P2;SDS_P1;SDS_P2;PMS_P1;PMS_P2;Temp;Humidity;BMP_temperature;BMP_pressure;BME280_temperature;BME280_humidity;BME280_pressure;Samples;Min_cycle;Max_cycle;Signal;HPM_P1;HPM_P2
2022/09/10 00:00:55;;;;;;;;;2.33;2.33;;;;;19.20;61.86;100839.19;2100519;27;47494;-60
2022/09/10 00:01:55;;;;;;;;;2.25;1.25;;;;;19.19;61.74;100840.16;2097147;28;47480;-59
2022/09/10 00:02:55;;;;;;;;;2.33;1.67;;;;;19.18;62.00;100833.00;2097109;28;48359;-61
2022/09/10 00:03:56;;;;;;;;;2.67;2.00;;;;;19.16;61.45;100834.91;2104445;27;47777;-62
2022/09/10 00:04:59;;;;;;;;;1.25;1.25;;;;;19.14;61.73;100835.97;2102812;27;47705;-59
2022/09/10 00:06:02;;;;;;;;;3.25;2.50;;;;;19.11;61.83;100832.50;2105354;27;47912;-61
2022/09/10 00:07:03;;;;;;;;;2.00;2.00;;;;;19.11;61.82;100835.19;2094647;28;47754;-59
2022/09/10 00:08:03;;;;;;;;;2.67;2.67;;;;;19.11;61.99;100828.94;2096072;28;47767;-60
2022/09/10 00:09:05;;;;;;;;;2.67;2.67;;;;;19.11;62.08;100832.50;2102921;27;47446;-62
2022/09/10 00:10:06;;;;;;;;;3.00;3.00;;;;;19.10;61.91;100836.16;2105281;27;48060;-62
2022/09/10 00:11:08;;;;;;;;;1.50;1.50;;;;;19.11;62.12;100828.94;2104381;27;47674;-61
2022/09/10 00:12:09;;;;;;;;;2.75;2.75;;;;;19.12;61.94;100838.75;2104763;27;47219;-58
2022/09/10 00:13:11;;;;;;;;;1.50;1.00;;;;;19.11;61.87;100839.69;2104683;27;47765;-61
2022/09/10 00:14:16;;;;;;;;;2.00;2.00;;;;;19.09;61.88;100839.78;2104136;27;46634;-60
2022/09/10 00:15:19;;;;;;;;;4.25;2.75;;;;;19.08;61.64;100829.13;2104159;27;47854;-60
2022/09/10 00:16:19;;;;;;;;;2.00;2.00;;;;;19.06;61.77;100839.97;2104036;27;47887;-60
2022/09/10 00:17:20;;;;;;;;;2.33;2.33;;;;;19.07;61.92;100832.75;2104468;27;45540;-60
2022/09/10 00:18:21;;;;;;;;;3.00;3.00;;;;;19.05;62.17;100830.13;2100155;27;47284;-61
2022/09/10 00:19:22;;;;;;;;;2.50;1.75;;;;;19.05;61.89;100832.81;2101724;27;47926;-59
2022/09/10 00:20:22;;;;;;;;;2.00;2.00;;;;;19.05;62.28;100827.44;2101507;27;46430;-57
2022/09/10 00:21:23;;;;;;;;;2.00;2.00;;;;;19.06;62.23;100826.53;2106542;27;47552;-61
2022/09/10 00:22:23;;;;;;;;;2.67;2.00;;;;;19.07;61.74;100828.25;2103555;27;47337;-59
2022/09/10 00:23:27;;;;;;;;;4.00;4.00;;;;;19.07;62.22;100833.63;2101066;27;47809;-59
2022/09/10 00:24:27;;;;;;;;;2.00;2.00;;;;;19.10;62.21;100835.28;2099998;27;47711;-59
2022/09/10 00:25:31;;;;;;;;;2.67;2.67;;;;;19.10;61.76;100832.59;2104461;28;47494;-60
2022/09/10 00:26:37;;;;;;;;;1.50;1.50;;;;;19.09;61.97;100834.41;2104228;27;47480;-59
2022/09/10 00:27:37;;;;;;;;;2.75;2.75;;;;;19.08;61.71;100831.81;2104781;27;47730;-60
2022/09/10 00:28:38;;;;;;;;;1.33;1.33;;;;;19.08;61.97;100834.50;2104722;27;47373;-59
2022/09/10 00:29:38;;;;;;;;;1.25;1.25;;;;;19.08;62.15;100837.19;2104033;27;47332;-62
2022/09/10 00:30:45;;;;;;;;;2.33;2.33;;;;;19.07;61.67;100828.25;2091956;28;47566;-59
2022/09/10 00:31:46;;;;;;;;;0.50;0.50;;;;;19.07;61.94;100828.25;2097012;28;45866;-59
2022/09/10 00:32:51;;;;;;;;;4.00;2.00;;;;;19.08;62.05;100826.44;2103673;27;47786;-60
2022/09/10 00:33:53;;;;;;;;;1.75;1.75;;;;;19.08;61.76;100826.44;2101922;27;47553;-60
2022/09/10 00:34:54;;;;;;;;;2.50;2.25;;;;;19.05;61.60;100821.19;2101145;27;47244;-59
2022/09/10 00:35:56;;;;;;;;;0.00;0.00;;;;;19.02;61.74;100821.38;2105184;27;47904;-59
2022/09/10 00:36:58;;;;;;;;;4.00;3.25;;;;;18.99;61.89;100814.34;2102100;27;47524;-60
2022/09/10 00:37:58;;;;;;;;;0.00;0.00;;;;;18.97;61.63;100820.78;2105681;27;47516;-61
2022/09/10 00:39:01;;;;;;;;;2.00;1.00;;;;;18.96;62.11;100824.41;2102926;27;47292;-60
2022/09/10 00:40:02;;;;;;;;;1.25;1.25;;;;;18.96;62.17;100824.41;2104778;27;47986;-59
2022/09/10 00:41:04;;;;;;;;;1.00;1.00;;;;;18.96;62.49;100817.22;2096789;28;46258;-60
2022/09/10 00:42:04;;;;;;;;;2.50;1.75;;;;;18.98;62.40;100817.13;2094966;28;47792;-59
2022/09/10 00:43:15;;;;;;;;;5.00;3.33;;;;;19.00;62.60;100817.91;2103847;27;47666;-59
2022/09/10 00:44:38;;;;;;;;;2.25;2.25;;;;;19.02;62.03;100813.31;2103839;27;47616;-59
2022/09/10 00:45:40;;;;;;;;;2.50;2.00;;;;;19.00;62.23;100816.06;2104434;27;45787;-59
2022/09/10 00:46:46;;;;;;;;;1.00;1.00;;;;;19.00;62.16;100809.84;2099798;27;47769;-58
2022/09/10 00:47:50;;;;;;;;;2.00;2.00;;;;;18.99;62.13;100816.16;2105156;27;48083;-58
2022/09/10 00:48:53;;;;;;;;;1.50;1.50;;;;;18.97;62.31;100810.00;2104776;27;48269;-59
2022/09/10 00:50:21;;;;;;;;;1.25;1.25;;;;;18.97;62.27;100812.69;2101622;28;47772;-59
2022/09/10 00:51:22;;;;;;;;;1.50;1.00;;;;;18.97;62.09;100808.19;2100306;28;47709;-59
2022/09/10 00:52:23;;;;;;;;;1.50;1.25;;;;;18.97;62.23;100810.88;2094204;28;47507;-59
2022/09/10 00:53:27;;;;;;;;;3.00;1.00;;;;;18.96;62.13;100814.53;2095225;28;47473;-59
2022/09/10 00:54:32;;;;;;;;;1.75;1.00;;;;;18.96;62.23;100811.84;2103084;27;47076;-60
2022/09/10 00:55:35;;;;;;;;;3.00;0.25;;;;;18.94;62.51;100805.69;2104269;27;47416;-59
2022/09/10 00:56:35;;;;;;;;;2.50;2.50;;;;;18.93;62.27;100806.63;2103807;27;47988;-59
2022/09/10 00:57:36;;;;;;;;;1.00;1.00;;;;;18.92;62.11;100801.31;2086274;28;46161;-59
2022/09/10 00:58:37;;;;;;;;;1.33;1.33;;;;;18.91;62.10;100796.88;2084078;28;47523;-60
2022/09/10 00:59:42;;;;;;;;;2.00;1.00;;;;;18.87;62.33;100801.56;2097527;28;47402;-59
2022/09/10 01:00:42;;;;;;;;;0.50;0.50;;;;;18.86;62.40;100807.91;2101419;27;47496;-60
2022/09/10 01:01:44;;;;;;;;;1.67;1.67;;;;;18.81;62.24;100802.78;2098090;27;47515;-59
2022/09/10 01:02:44;;;;;;;;;4.75;2.00;;;;;18.81;62.47;100801.91;2098782;27;47699;-59
2022/09/10 01:03:45;;;;;;;;;2.67;2.00;;;;;18.79;62.71;100796.59;2101858;28;47612;-59
2022/09/10 01:04:45;;;;;;;;;1.00;1.00;;;;;18.79;62.46;100798.41;2092072;28;47495;-60
2022/09/10 01:05:47;;;;;;;;;1.33;1.33;;;;;18.79;62.64;100807.34;2096014;28;47661;-60
2022/09/10 01:06:50;;;;;;;;;1.75;1.75;;;;;18.80;62.33;100802.84;2103508;28;47721;-59
2022/09/10 01:07:51;;;;;;;;;1.75;1.75;;;;;18.76;62.35;100801.28;2105602;28;46893;-59
2022/09/10 01:08:52;;;;;;;;;1.25;1.25;;;;;18.76;62.62;100806.66;2103332;27;47568;-58
2022/09/10 01:09:52;;;;;;;;;1.67;1.00;;;;;18.76;62.33;100801.28;2104973;28;47336;-60
2022/09/10 01:11:34;;;;;;;;;4.00;1.00;;;;;18.76;62.42;100803.97;2099958;28;47332;-60
2022/09/10 01:13:18;;;;;;;;;2.25;1.25;;;;;18.77;62.64;100797.63;2101083;27;47792;-59
2022/09/10 01:14:40;;;;;;;;;1.75;1.50;;;;;18.76;62.46;100801.28;2101240;27;47588;-59
2022/09/10 01:15:46;;;;;;;;;1.25;1.00;;;;;18.75;62.66;100803.09;2104748;28;48308;-61
2022/09/10 01:16:55;;;;;;;;;2.00;2.00;;;;;18.76;62.47;100803.97;2103416;27;47715;-59
2022/09/10 01:18:14;;;;;;;;;1.00;1.00;;;;;18.77;62.58;100803.03;2098957;28;47756;-60
2022/09/10 01:19:27;;;;;;;;;3.75;2.75;;;;;18.78;62.79;100805.63;2103724;28;47439;-61
2022/09/10 01:20:47;;;;;;;;;2.00;1.50;;;;;18.79;62.96;100803.78;2102672;27;48086;-59
2022/09/10 01:22:10;;;;;;;;;1.50;1.50;;;;;18.81;62.82;100812.69;2092368;28;48280;-60
2022/09/10 01:23:17;;;;;;;;;3.50;3.25;;;;;18.83;62.79;100807.22;2096915;27;47799;-59
2022/09/10 01:24:51;;;;;;;;;1.75;1.75;;;;;18.84;62.64;100806.25;2097645;27;47738;-59
2022/09/10 01:26:27;;;;;;;;;2.75;2.00;;;;;18.84;62.71;100808.94;2105205;28;47702;-60
2022/09/10 01:27:36;;;;;;;;;2.00;2.00;;;;;18.85;62.38;100816.06;2102831;28;47877;-61
2022/09/10 01:28:52;;;;;;;;;4.00;3.00;;;;;18.86;62.34;100820.47;2103776;27;47759;-58
2022/09/10 01:30:02;;;;;;;;;3.50;1.75;;;;;18.83;62.29;100817.97;2099109;28;48152;-59
2022/09/10 01:31:11;;;;;;;;;1.25;1.25;;;;;18.80;62.49;100818.97;2093402;28;47205;-61
2022/09/10 01:32:16;;;;;;;;;3.00;2.25;;;;;18.78;62.49;100819.06;2095379;28;47280;-60
2022/09/10 01:33:41;;;;;;;;;3.75;1.75;;;;;18.76;62.85;100815.59;2102183;28;47701;-60
2022/09/10 01:35:05;;;;;;;;;3.00;3.00;;;;;18.77;62.79;100821.84;2101652;28;47654;-58
2022/09/10 01:36:12;;;;;;;;;3.25;1.00;;;;;18.76;62.54;100812.91;2097867;27;47583;-60
2022/09/10 01:37:20;;;;;;;;;1.25;1.25;;;;;18.77;62.78;100821.84;2104794;28;47761;-60
2022/09/10 01:38:26;;;;;;;;;3.00;2.00;;;;;18.77;62.79;100819.16;2103673;27;48077;-60
2022/09/10 01:39:27;;;;;;;;;0.75;0.75;;;;;18.75;62.85;100819.25;2099556;28;47699;-59
2022/09/10 01:40:28;;;;;;;;;0.50;0.50;;;;;18.74;62.54;100822.88;2098495;28;47465;-59
2022/09/10 01:41:29;;;;;;;;;2.00;0.75;;;;;18.70;62.91;100815.94;2104593;27;47770;-59
2022/09/10 01:42:30;;;;;;;;;1.00;1.00;;;;;18.69;62.70;100818.72;2103718;28;47686;-60
2022/09/10 01:43:32;;;;;;;;;1.25;1.25;;;;;18.71;62.90;100814.13;2104192;27;47330;-60
2022/09/10 01:44:46;;;;;;;;;4.00;1.50;;;;;18.71;63.05;100815.00;2103538;27;47475;-60
2022/09/10 01:46:07;;;;;;;;;4.50;2.00;;;;;18.74;62.86;100814.81;2104584;27;47968;-59
2022/09/10 01:47:43;;;;;;;;;1.50;1.50;;;;;18.75;62.90;100821.94;2101712;28;47538;-59
2022/09/10 01:49:08;;;;;;;;;1.25;1.25;;;;;18.74;62.65;100817.50;2068856;28;47953;-59
2022/09/10 01:50:33;;;;;;;;;3.00;2.25;;;;;18.74;62.89;100819.31;2067215;28;48107;-58
2022/09/10 01:51:48;;;;;;;;;1.25;1.25;;;;;18.74;62.69;100813.94;2070420;28;47225;-59
2022/09/10 01:53:27;;;;;;;;;2.00;2.00;;;;;18.73;62.94;100820.28;2068898;28;47259;-60
2022/09/10 01:54:57;;;;;;;;;3.50;1.75;;;;;18.72;63.04;100815.84;2066758;28;47533;-59
2022/09/10 01:56:10;;;;;;;;;1.00;1.00;;;;;18.73;63.09;100817.59;2066946;28;47784;-60
2022/09/10 01:57:22;;;;;;;;;2.25;1.75;;;;;18.74;63.07;100820.19;2062073;28;47658;-60
2022/09/10 01:58:34;;;;;;;;;1.25;0.75;;;;;18.76;62.94;100826.34;2061679;28;47532;-58
2022/09/10 01:59:43;;;;;;;;;3.00;3.00;;;;;18.76;62.95;100828.16;2070311;28;47705;-59
2022/09/10 02:01:00;;;;;;;;;3.50;2.75;;;;;18.75;63.26;100829.13;2068755;28;47792;-59
2022/09/10 02:02:12;;;;;;;;;1.50;1.50;;;;;18.74;62.84;100824.69;2068633;28;47620;-60
2022/09/10 02:03:17;;;;;;;;;1.00;1.00;;;;;18.73;62.81;100831.91;2072342;28;46079;-59
2022/09/10 02:04:20;;;;;;;;;1.00;1.00;;;;;18.73;62.75;100825.66;2059126;28;47120;-59
2022/09/10 02:05:22;;;;;;;;;1.00;1.00;;;;;18.71;63.35;100825.75;2062707;28;47824;-59
2022/09/10 02:06:28;;;;;;;;;3.50;2.00;;;;;18.71;63.10;100830.25;2059382;28;47632;-60
2022/09/10 02:07:30;;;;;;;;;0.50;0.50;;;;;18.69;62.95;100819.59;2062900;28;48063;-60
2022/09/10 02:08:36;;;;;;;;;3.50;1.25;;;;;18.67;63.26;100821.44;2067046;28;47471;-60
2022/09/10 02:09:37;;;;;;;;;2.00;1.25;;;;;18.67;63.48;100825.97;2069776;28;47808;-60
2022/09/10 02:11:11;;;;;;;;;1.00;0.75;;;;;18.70;63.25;100831.19;2057991;28;47280;-60
2022/09/10 02:12:18;;;;;;;;;4.00;2.00;;;;;18.70;62.91;100826.69;2026489;28;47671;-59
2022/09/10 02:13:19;;;;;;;;;2.00;1.25;;;;;18.70;63.07;100826.69;2029446;28;47911;-60
2022/09/10 02:14:20;;;;;;;;;2.00;2.00;;;;;18.67;63.05;100818.78;2029478;28;47525;-59
2022/09/10 02:15:25;;;;;;;;;0.50;0.50;;;;;18.69;62.95;100834.84;2030028;28;48187;-60
2022/09/10 02:16:33;;;;;;;;;2.00;2.00;;;;;18.66;63.13;100824.22;2029425;28;47474;-60
2022/09/10 02:17:36;;;;;;;;;1.75;1.75;;;;;18.64;63.38;100818.06;2031791;28;47675;-59
2022/09/10 02:18:38;;;;;;;;;2.25;1.50;;;;;18.62;63.00;100828.88;2029109;28;47637;-59
2022/09/10 02:19:39;;;;;;;;;1.25;1.25;;;;;18.62;63.24;100826.19;2030155;28;47446;-60
2022/09/10 02:20:40;;;;;;;;;1.00;1.00;;;;;18.63;63.17;100824.38;2026264;28;48187;-60
2022/09/10 02:21:41;;;;;;;;;2.75;2.25;;;;;18.63;63.06;100825.22;2033415;28;47497;-59
2022/09/10 02:22:49;;;;;;;;;2.33;1.33;;;;;18.63;63.50;100825.22;2031555;28;47867;-59
2022/09/10 02:23:56;;;;;;;;;1.00;1.00;;;;;18.65;63.44;100833.25;2031053;28;47783;-59
2022/09/10 02:24:56;;;;;;;;;2.00;2.00;;;;;18.64;63.19;100831.50;2029344;28;48801;-59
2022/09/10 02:25:57;;;;;;;;;3.33;2.33;;;;;18.63;63.47;100827.06;2046435;28;47589;-60
2022/09/10 02:26:59;;;;;;;;;3.00;3.00;;;;;18.62;63.26;100830.69;2044614;28;47580;-60
2022/09/10 02:28:00;;;;;;;;;3.00;3.00;;;;;18.63;63.50;100821.69;2047400;28;47643;-58
2022/09/10 02:29:00;;;;;;;;;4.00;1.33;;;;;18.62;63.48;100822.63;2052740;28;47576;-58
2022/09/10 02:30:01;;;;;;;;;3.33;2.00;;;;;18.63;63.45;100837.81;2054235;28;47461;-60
2022/09/10 02:31:01;;;;;;;;;2.67;2.33;;;;;18.63;63.32;100827.06;2052774;28;47466;-59
2022/09/10 02:32:02;;;;;;;;;4.00;1.67;;;;;18.62;63.20;100828.00;2046300;28;47201;-59
2022/09/10 02:33:02;;;;;;;;;2.00;2.00;;;;;18.60;63.32;100825.41;2044894;28;48115;-58
2022/09/10 02:34:03;;;;;;;;;2.00;1.33;;;;;18.60;63.69;100825.41;2048229;28;47088;-60
2022/09/10 02:35:04;;;;;;;;;3.33;1.00;;;;;18.61;63.72;100823.59;2056785;28;47846;-58
2022/09/10 02:36:04;;;;;;;;;3.25;2.00;;;;;18.60;63.72;100819.16;2045450;28;47358;-58
2022/09/10 02:37:04;;;;;;;;;1.33;1.33;;;;;18.61;63.62;100829.81;2045576;28;47899;-59
2022/09/10 02:38:05;;;;;;;;;3.67;1.00;;;;;18.61;63.63;100827.13;2053218;28;47356;-59
2022/09/10 02:39:06;;;;;;;;;1.00;1.00;;;;;18.59;63.48;100829.03;2052820;28;48019;-59
2022/09/10 02:40:07;;;;;;;;;2.00;2.00;;;;;18.60;63.34;100824.53;2055979;28;48536;-57
2022/09/10 02:41:08;;;;;;;;;2.00;1.00;;;;;18.61;63.64;100829.81;2055123;28;47845;-59
2022/09/10 02:42:12;;;;;;;;;2.00;2.00;;;;;18.62;63.43;100831.56;2052732;28;47759;-58
2022/09/10 02:43:12;;;;;;;;;2.25;2.25;;;;;18.63;63.45;100817.16;2052409;28;47916;-59
2022/09/10 02:44:12;;;;;;;;;3.00;1.00;;;;;18.65;63.46;100825.19;2053754;28;47823;-60
2022/09/10 02:45:13;;;;;;;;;3.00;2.00;;;;;18.66;63.32;100829.59;2054719;28;47566;-58
2022/09/10 02:46:13;;;;;;;;;2.00;1.33;;;;;18.68;63.30;100830.41;2052812;28;47361;-58
2022/09/10 02:47:14;;;;;;;;;2.67;1.67;;;;;18.69;63.50;100834.84;2053682;28;47244;-58
2022/09/10 02:48:14;;;;;;;;;2.00;1.00;;;;;18.69;63.55;100838.41;2066061;27;47223;-61
2022/09/10 02:49:15;;;;;;;;;2.00;2.00;;;;;18.69;63.34;100834.84;2104122;27;47698;-58
2022/09/10 02:50:15;;;;;;;;;1.00;1.00;;;;;18.69;63.15;100830.34;2101633;27;48018;-59
2022/09/10 02:51:16;;;;;;;;;2.00;1.00;;;;;18.68;63.18;100825.03;2103572;27;48172;-60
2022/09/10 02:52:16;;;;;;;;;3.00;3.00;;;;;18.67;63.43;100840.28;2103072;27;47503;-60
2022/09/10 02:53:17;;;;;;;;;1.67;1.33;;;;;18.66;63.45;100832.28;2104036;27;47430;-60
2022/09/10 02:54:18;;;;;;;;;0.75;0.75;;;;;18.65;63.30;100826.06;2102605;27;47568;-60
2022/09/10 02:55:19;;;;;;;;;2.25;2.25;;;;;18.66;63.20;100830.47;2101723;27;48022;-59
2022/09/10 02:56:19;;;;;;;;;1.00;1.00;;;;;18.68;63.56;100827.72;2102768;27;47477;-60
2022/09/10 02:57:19;;;;;;;;;2.33;2.33;;;;;18.68;63.25;100835.78;2104308;27;47220;-60
2022/09/10 02:58:20;;;;;;;;;1.00;1.00;;;;;18.67;62.91;100826.84;2084688;28;46002;-59
2022/09/10 02:59:21;;;;;;;;;2.00;2.00;;;;;18.68;62.95;100830.41;2081518;28;47380;-60
2022/09/10 03:00:22;;;;;;;;;0.50;0.50;;;;;18.68;63.23;100822.34;2102763;27;47327;-59
2022/09/10 03:01:22;;;;;;;;;3.00;1.33;;;;;18.67;63.31;100832.22;2102458;27;47530;-58
2022/09/10 03:02:23;;;;;;;;;2.00;2.00;;;;;18.68;63.26;100833.97;2102799;27;46730;-59
2022/09/10 03:03:23;;;;;;;;;1.00;1.00;;;;;18.68;63.48;100825.91;2097518;27;47482;-58
2022/09/10 03:04:24;;;;;;;;;1.00;1.00;;;;;18.68;63.16;100833.09;2101109;28;47462;-60
2022/09/10 03:05:24;;;;;;;;;1.67;1.67;;;;;18.67;63.27;100842.97;2103712;27;47390;-60
2022/09/10 03:06:26;;;;;;;;;0.33;0.33;;;;;18.66;63.36;100827.78;2102167;27;46959;-58
2022/09/10 03:07:26;;;;;;;;;2.50;2.00;;;;;18.67;63.04;100832.22;2102473;28;48164;-58
2022/09/10 03:08:26;;;;;;;;;2.33;2.33;;;;;18.68;63.53;100830.41;2103415;28;47691;-59
2022/09/10 03:09:27;;;;;;;;;3.00;3.00;;;;;18.68;63.53;100833.09;2104527;28;47606;-58
2022/09/10 03:10:28;;;;;;;;;1.00;1.00;;;;;18.69;63.09;100832.16;2098796;27;47447;-60
2022/09/10 03:11:29;;;;;;;;;2.00;2.00;;;;;18.67;63.24;100837.59;2102770;28;47971;-60
2022/09/10 03:12:29;;;;;;;;;2.33;2.33;;;;;18.69;63.25;100834.84;2085132;28;47618;-59
2022/09/10 03:13:29;;;;;;;;;2.67;2.00;;;;;18.69;63.09;100834.84;2080551;28;47945;-59
2022/09/10 03:14:30;;;;;;;;;2.00;2.00;;;;;18.70;63.02;100833.88;2096525;27;47720;-58
2022/09/10 03:15:30;;;;;;;;;3.33;3.00;;;;;18.68;63.24;100836.66;2102100;28;47378;-59
2022/09/10 03:16:30;;;;;;;;;3.00;2.00;;;;;18.68;63.32;100844.72;2101895;28;47760;-59
2022/09/10 03:17:31;;;;;;;;;1.00;1.00;;;;;18.69;63.22;100840.22;2101077;28;47611;-60
2022/09/10 03:18:32;;;;;;;;;2.00;2.00;;;;;18.69;63.09;100842.91;2100039;28;47937;-58
2022/09/10 03:19:32;;;;;;;;;2.33;2.00;;;;;18.68;63.56;100833.97;2103646;27;47824;-61
2022/09/10 03:20:32;;;;;;;;;2.00;2.00;;;;;18.69;63.01;100841.09;2102821;28;47930;-61
2022/09/10 03:21:33;;;;;;;;;3.00;3.00;;;;;18.71;63.23;100830.25;2097431;28;47360;-59
2022/09/10 03:22:33;;;;;;;;;3.00;3.00;;;;;18.72;63.27;100832.84;2101100;28;47012;-59
2022/09/10 03:23:33;;;;;;;;;3.00;2.00;;;;;18.72;63.02;100830.16;2103473;28;47047;-60
2022/09/10 03:24:34;;;;;;;;;3.33;3.00;;;;;18.73;63.32;100833.72;2100339;28;47949;-58
2022/09/10 03:25:34;;;;;;;;;2.00;1.00;;;;;18.73;63.45;100833.72;2102810;28;47765;-60
2022/09/10 03:26:35;;;;;;;;;3.67;3.67;;;;;18.73;63.26;100826.53;2102436;27;47740;-59
2022/09/10 03:27:35;;;;;;;;;4.00;1.00;;;;;18.72;63.03;100830.16;2100903;28;47570;-59
2022/09/10 03:28:36;;;;;;;;;2.33;2.33;;;;;18.73;63.08;100828.34;2098214;27;46329;-59
2022/09/10 03:29:37;;;;;;;;;2.50;2.00;;;;;18.75;63.24;100829.13;2097688;28;47855;-59
2022/09/10 03:30:37;;;;;;;;;1.67;1.67;;;;;18.72;62.89;100834.66;2099415;27;47526;-61
2022/09/10 03:31:38;;;;;;;;;3.00;0.00;;;;;18.72;62.95;100840.91;2103716;28;47534;-58
2022/09/10 03:32:39;;;;;;;;;5.33;2.33;;;;;18.72;63.49;100838.22;2102874;28;47660;-59
2022/09/10 03:33:40;;;;;;;;;3.00;3.00;;;;;18.72;63.43;100840.91;2103465;28;47509;-60
2022/09/10 03:34:40;;;;;;;;;2.25;2.25;;;;;18.72;63.08;100838.22;2102649;28;47924;-60
2022/09/10 03:35:40;;;;;;;;;4.00;2.00;;;;;18.71;62.99;100833.81;2096674;28;47552;-59
2022/09/10 03:36:41;;;;;;;;;2.33;2.33;;;;;18.72;63.30;100837.34;2100052;28;47650;-59
2022/09/10 03:37:43;;;;;;;;;1.67;1.67;;;;;18.71;63.23;100831.13;2097756;28;47326;-59
2022/09/10 03:38:43;;;;;;;;;2.50;1.00;;;;;18.72;63.10;100829.28;2100591;28;47559;-59
2022/09/10 03:39:44;;;;;;;;;2.67;1.00;;;;;18.72;63.35;100829.28;2104696;28;47419;-60
2022/09/10 03:40:44;;;;;;;;;2.67;2.67;;;;;18.74;63.08;100835.44;2100383;27;47718;-57
2022/09/10 03:41:45;;;;;;;;;2.33;1.00;;;;;18.74;63.02;100836.31;2100628;28;47783;-60
2022/09/10 03:42:45;;;;;;;;;1.75;1.75;;;;;18.74;63.10;100839.00;2101515;27;47833;-59
2022/09/10 03:43:46;;;;;;;;;1.33;1.33;;;;;18.74;63.07;100833.63;2099682;28;47505;-59
2022/09/10 03:44:46;;;;;;;;;2.67;1.33;;;;;18.72;63.02;100832.84;2102451;27;47810;-60
2022/09/10 03:45:49;;;;;;;;;2.00;1.00;;;;;18.73;63.13;100836.41;2101005;28;47865;-60
2022/09/10 03:46:50;;;;;;;;;3.25;1.50;;;;;18.73;63.03;100839.09;2102432;28;47795;-59
2022/09/10 03:47:50;;;;;;;;;1.00;0.75;;;;;18.72;63.26;100824.78;2095983;28;45602;-60
2022/09/10 03:48:51;;;;;;;;;1.00;1.00;;;;;18.72;63.50;100830.16;2100631;27;46577;-60
2022/09/10 03:49:52;;;;;;;;;2.00;2.00;;;;;18.73;63.21;100826.53;2104043;28;47024;-61
2022/09/10 03:50:53;;;;;;;;;1.75;1.75;;;;;18.74;62.97;100835.44;2101796;27;47863;-59
2022/09/10 03:51:54;;;;;;;;;1.75;1.75;;;;;18.72;63.05;100832.84;2102387;28;47888;-58
2022/09/10 03:52:55;;;;;;;;;1.50;1.50;;;;;18.71;63.32;100838.31;2101374;27;47295;-60
2022/09/10 03:53:58;;;;;;;;;2.00;2.00;;;;;18.70;63.06;100831.19;2096271;28;47690;-59
2022/09/10 03:54:58;;;;;;;;;1.00;1.00;;;;;18.69;63.36;100835.72;2101955;28;47494;-58
2022/09/10 03:55:59;;;;;;;;;2.33;2.33;;;;;18.71;63.24;100841.00;2105533;28;46314;-59
2022/09/10 03:57:01;;;;;;;;;3.00;3.00;;;;;18.71;63.32;100830.25;2103406;27;47956;-60
2022/09/10 03:58:02;;;;;;;;;1.00;1.00;;;;;18.72;63.10;100837.34;2100377;28;47699;-59
2022/09/10 03:59:02;;;;;;;;;2.67;2.67;;;;;18.73;63.19;100831.03;2087003;28;47210;-59
2022/09/10 04:00:03;;;;;;;;;5.67;3.33;;;;;18.75;63.21;100838.06;2091790;28;47779;-60
2022/09/10 04:01:04;;;;;;;;;2.50;1.50;;;;;18.75;62.92;100837.19;2093591;28;47110;-59
2022/09/10 04:02:04;;;;;;;;;2.50;2.00;;;;;18.74;62.89;100836.31;2094018;28;47484;-58
2022/09/10 04:03:05;;;;;;;;;1.33;1.33;;;;;18.72;62.97;100838.22;2104638;27;47416;-60
2022/09/10 04:04:07;;;;;;;;;3.33;2.33;;;;;18.72;63.40;100840.03;2103747;27;47401;-58
2022/09/10 04:05:07;;;;;;;;;0.25;0.25;;;;;18.71;63.10;100832.94;2103315;27;47629;-58
2022/09/10 04:06:09;;;;;;;;;2.67;2.67;;;;;18.71;62.99;100825.75;2104330;27;47147;-59
2022/09/10 04:07:10;;;;;;;;;3.25;1.25;;;;;18.72;63.11;100832.84;2092465;28;47843;-59
2022/09/10 04:08:12;;;;;;;;;2.33;2.00;;;;;18.73;63.00;100831.03;2095151;28;47746;-59
2022/09/10 04:09:12;;;;;;;;;3.25;2.75;;;;;18.72;63.40;100821.22;2100854;27;47528;-59
2022/09/10 04:10:13;;;;;;;;;3.67;3.00;;;;;18.71;63.15;100824.88;2104246;27;47190;-59
2022/09/10 04:11:13;;;;;;;;;2.00;2.00;;;;;18.69;63.09;100819.59;2104458;27;48007;-59
2022/09/10 04:12:14;;;;;;;;;3.00;3.00;;;;;18.68;63.00;100828.59;2104443;27;47727;-58
2022/09/10 04:13:14;;;;;;;;;3.00;2.00;;;;;18.68;63.24;100833.09;2104126;27;47477;-57
2022/09/10 04:14:14;;;;;;;;;0.00;0.00;;;;;18.67;63.24;100834.03;2104168;27;47690;-60
2022/09/10 04:15:15;;;;;;;;;1.67;1.33;;;;;18.65;63.11;100833.25;2090283;28;47641;-59
2022/09/10 04:16:15;;;;;;;;;2.00;2.00;;;;;18.64;63.29;100832.38;2078667;28;47443;-60
2022/09/10 04:17:16;;;;;;;;;3.00;3.00;;;;;18.64;63.27;100835.06;2093272;28;47925;-59
2022/09/10 04:18:17;;;;;;;;;2.00;2.00;;;;;18.65;63.33;100838.63;2101819;27;47318;-59
2022/09/10 04:19:17;;;;;;;;;5.00;2.33;;;;;18.65;63.25;100839.50;2094267;28;47677;-59
2022/09/10 04:20:18;;;;;;;;;1.00;1.00;;;;;18.66;63.24;100841.22;2093531;28;46176;-60
2022/09/10 04:21:19;;;;;;;;;0.75;0.75;;;;;18.67;63.26;100839.41;2104583;27;47828;-60
2022/09/10 04:22:21;;;;;;;;;2.00;1.00;;;;;18.66;63.49;100837.66;2104577;27;47614;-60
2022/09/10 04:23:21;;;;;;;;;4.75;1.00;;;;;18.66;63.27;100837.66;2104597;27;47346;-60
2022/09/10 04:24:22;;;;;;;;;1.67;1.67;;;;;18.67;63.31;100842.09;2104106;27;47514;-59
2022/09/10 04:25:22;;;;;;;;;1.33;1.33;;;;;18.64;63.21;100840.44;2104611;27;47701;-59
2022/09/10 04:26:23;;;;;;;;;1.00;1.00;;;;;18.64;63.33;100837.75;2103861;27;48019;-60
2022/09/10 04:27:25;;;;;;;;;2.00;2.00;;;;;18.64;63.25;100845.81;2094585;28;47258;-59
2022/09/10 04:28:25;;;;;;;;;2.50;2.50;;;;;18.64;63.58;100834.19;2092775;28;47703;-60
2022/09/10 04:29:27;;;;;;;;;0.67;0.67;;;;;18.62;63.47;100839.63;2104630;27;47168;-61
2022/09/10 04:30:27;;;;;;;;;4.00;2.25;;;;;18.63;63.12;100837.81;2104522;27;48025;-62
2022/09/10 04:31:28;;;;;;;;;1.67;1.67;;;;;18.62;63.42;100839.63;2108910;27;47187;-58
2022/09/10 04:32:28;;;;;;;;;3.00;2.00;;;;;18.64;63.24;100842.25;2106449;27;48098;-60
2022/09/10 04:33:29;;;;;;;;;3.33;2.33;;;;;18.65;63.64;100844.00;2103790;27;47676;-60
2022/09/10 04:34:29;;;;;;;;;2.67;2.67;;;;;18.67;63.42;100840.28;2103388;27;48051;-60
2022/09/10 04:35:29;;;;;;;;;2.00;2.00;;;;;18.68;63.17;100841.16;2101397;27;47724;-61
2022/09/10 04:36:30;;;;;;;;;4.33;4.33;;;;;18.70;63.41;100847.34;2102094;27;46817;-60
2022/09/10 04:37:31;;;;;;;;;1.00;1.00;;;;;18.70;63.70;100844.66;2104608;27;47855;-59
2022/09/10 04:38:32;;;;;;;;;1.00;1.00;;;;;18.72;63.51;100845.44;2097644;27;47275;-60
2022/09/10 04:39:32;;;;;;;;;3.00;2.75;;;;;18.74;63.45;100843.53;2103620;27;47633;-60
2022/09/10 04:40:33;;;;;;;;;2.00;2.00;;;;;18.77;63.47;100851.41;2093210;28;47646;-60
2022/09/10 04:41:33;;;;;;;;;2.00;2.00;;;;;18.80;63.24;100843.16;2098705;28;47215;-60
2022/09/10 04:42:34;;;;;;;;;1.00;1.00;;;;;18.80;63.31;100844.06;2094942;28;47194;-60
2022/09/10 04:43:35;;;;;;;;;3.00;3.00;;;;;18.82;63.11;100852.06;2087774;28;47565;-60
2022/09/10 04:44:36;;;;;;;;;2.75;2.25;;;;;18.83;62.86;100839.47;2094498;28;47533;-59
2022/09/10 04:45:36;;;;;;;;;2.33;1.33;;;;;18.85;63.02;100840.25;2104686;27;47308;-59
2022/09/10 04:46:37;;;;;;;;;1.67;1.67;;;;;18.86;62.97;100845.56;2103550;27;46475;-60
2022/09/10 04:47:38;;;;;;;;;2.20;2.20;;;;;18.86;62.79;100839.31;2104111;27;46646;-61
2022/09/10 04:48:39;;;;;;;;;1.00;1.00;;;;;18.86;62.75;100845.56;2104063;27;47446;-60
2022/09/10 04:49:39;;;;;;;;;1.33;0.67;;;;;18.85;62.93;100848.31;2103537;27;47165;-58
2022/09/10 04:50:40;;;;;;;;;2.00;0.67;;;;;18.84;63.03;100843.91;2101083;27;47296;-59
2022/09/10 04:51:40;;;;;;;;;2.33;1.67;;;;;18.83;63.20;100845.72;2105085;27;44972;-60
2022/09/10 04:52:42;;;;;;;;;2.67;2.00;;;;;18.85;62.86;100849.19;2104108;27;47517;-60
2022/09/10 04:53:43;;;;;;;;;1.75;1.75;;;;;18.86;62.69;100848.25;2108261;27;47449;-58
2022/09/10 04:54:44;;;;;;;;;1.00;1.00;;;;;18.87;63.31;100849.09;2111324;27;47304;-61
2022/09/10 04:55:46;;;;;;;;;2.67;2.67;;;;;18.88;63.13;100845.47;2104823;27;47845;-60
2022/09/10 04:56:47;;;;;;;;;3.50;3.00;;;;;18.88;62.83;100849.03;2102938;27;47927;-60